Tutti
Trulson Fld Airport (Plaza, ND) Y99 Meteo
There is no TAF data available at Y99 or any nearby airports.
There is no METAR data available at Y99. Showing METAR data for 08D (28 mi O).
Storico METAR 08D recente (nessun dato per Y99)
| Date | Time (CDT) | Flight Rules | Wind Dir. | Speed | Type | Height AGL (ft) | Visibility | Temp (°C) | Temp (°F) | Dew Point (°C) | Dew Point (°F) | Rel. Humid. | Pressure | Density Altitude | Remarks |
|---|---|---|---|---|---|---|---|---|---|---|---|---|---|---|---|
| 03-set | 21:35 | VFR | 90° | 6 kt | 10 miles | 18° | 64° | 18° | 64° | 100% | 29.88 in Hg | 3.124 ft | |||
| 03-set | 21:15 | VFR | 80° | 7 kt | 10 miles | 18° | 64° | 18° | 64° | 100% | 29.87 in Hg | 3.134 ft | |||
| 03-set | 20:55 | VFR | 100° | 7 kt | 10 miles | 19° | 66° | 18° | 64° | 94% | 29.86 in Hg | 3.264 ft | |||
| 03-set | 20:35 | VFR | 90° | 7 kt | 10 miles | 20° | 68° | 18° | 64° | 88% | 29.85 in Hg | 3.394 ft | Wind gusting to 12 KT | ||
| 03-set | 20:15 | VFR | 90° | 6 kt | 10 miles | 21° | 69° | 17° | 62° | 78% | 29.84 in Hg | 3.524 ft | |||
| 03-set | 19:55 | VFR | 100° | 9 kt | 10 miles | 22° | 71° | 17° | 62° | 73% | 29.84 in Hg | 3.644 ft | |||
| 03-set | 19:35 | VFR | 80° | 7 kt | 10 miles | 23° | 73° | 17° | 62° | 69% | 29.83 in Hg | 3.774 ft | |||
| 03-set | 19:15 | VFR | 80° | 5 kt | 10 miles | 23° | 73° | 17° | 62° | 69% | 29.83 in Hg | 3.774 ft | |||
| 03-set | 18:55 | VFR | 60° | 4 kt | 10 miles | 24° | 75° | 17° | 62° | 65% | 29.82 in Hg | 3.904 ft | |||
| 03-set | 18:35 | VFR | 130° | 6 kt | 10 miles | 24° | 75° | 17° | 62° | 65% | 29.82 in Hg | 3.904 ft | |||
| 03-set | 18:15 | VFR | Calm | 10 miles | 24° | 75° | 16° | 60° | 61% | 29.81 in Hg | 3.914 ft | ||||
| 03-set | 17:55 | VFR | Calm | 10 miles | 24° | 75° | 16° | 60° | 61% | 29.81 in Hg | 3.914 ft | ||||
| 03-set | 17:35 | VFR | 80° | 3 kt | 10 miles | 24° | 75° | 17° | 62° | 65% | 29.80 in Hg | 3.924 ft | Wind gusting to 10 KT | ||
| 03-set | 17:15 | VFR | Calm | 10 miles | 24° | 75° | 16° | 60° | 61% | 29.80 in Hg | 3.924 ft | ||||
| 03-set | 16:55 | VFR | Variable | 4 kt | 10 miles | 23° | 73° | 16° | 60° | 65% | 29.80 in Hg | 3.804 ft | |||
| 03-set | 16:35 | VFR | 130° | 5 kt | 10 miles | 23° | 73° | 16° | 60° | 65% | 29.80 in Hg | 3.804 ft | |||
| 03-set | 16:15 | VFR | Calm | 10 miles | 23° | 73° | 16° | 60° | 65% | 29.80 in Hg | 3.804 ft | ||||
| 03-set | 15:55 | VFR | Calm | 10 miles | 21° | 69° | 16° | 60° | 73% | 29.79 in Hg | 3.574 ft | ||||
| 03-set | 15:35 | VFR | 340° | 3 kt | 10 miles | 21° | 69° | 16° | 60° | 73% | 29.79 in Hg | 3.574 ft | |||
| 03-set | 15:15 | VFR | 300° | 4 kt | 10 miles | 20° | 68° | 16° | 60° | 78% | 29.79 in Hg | 3.454 ft | |||
| 03-set | 14:55 | VFR | 80° | 5 kt | 10 miles | 20° | 68° | 16° | 60° | 78% | 29.79 in Hg | 3.454 ft | |||
| 03-set | 14:35 | VFR | Variable | 5 kt | 10 miles | 19° | 66° | 16° | 60° | 83% | 29.80 in Hg | 3.324 ft | |||
| 03-set | 14:15 | VFR | 120° | 7 kt | 10 miles | 19° | 66° | 16° | 60° | 83% | 29.81 in Hg | 3.314 ft | |||
| 03-set | 13:55 | VFR | 130° | 7 kt | 10 miles | 19° | 66° | 16° | 60° | 83% | 29.82 in Hg | 3.304 ft |
Accedi
| Il tuo browser non è supportato. fai l'upgrade del tuo browser |
